Detall de PIREP

Printer-friendly versionPDF version

[2010/02/27 17:46:00]
Flight IATA:CT1001
Pilot Number:026
Company ICAO:CAT
Aircraft Type:DC85/A
PAX:136
Departing Airport: LEMH
Destination Airport: LFKJ
Alternate Airport:LIEO
Online: VATSIM
Route:MEROS B16 LUMAS UT16 TINOT
Flight Level:FL240
No Slew and time accel
No pause
Crash detect
Detect pilot in Cockpit between each 30 and 45 minutes
17:46 Zero fuel Weight: 185727 Lbs, Fuel Weight: 24001 Lbs
17:46 VATSIM:LEMH 271730Z 13014KT 9999 FEW020 14/12 Q1004
17:46 VATSIM:LFKJ 271730Z VRB03KT 9999 SCT083 OVC110 13/09 Q1011 NOSIG
17:46 VOICE CATALONIAN / MEDITERRANEAN ODYSSEY
17:56 Parking Brakes off
18:03 Take-off
18:03 Take off Weight: 208556 Lbs
18:03 Wind: 131º @ 012 Knots Heading: 185º
18:03 POS N39º 51´ 16´´ E004º 13´ 01´´
18:03 Gear Up: 181 Knots
18:03 Flaps:2 at 181 Knots
18:04 Flaps:1 at 204 Knots
18:05 Flaps:0 at 209 Knots
18:11 TOC
18:11 Fuel Weight: 19
637 Lb
18:18 Wind:128º@033 Knots Heading: 016º Ground Speed: 467 Knots Altitude 23671 ft
18:33 Wind:045º@036 Knots Heading: 128º Ground Speed: 429 Knots Altitude 23795 ft
18:37 TOD
18:37 Fuel Weight: 13353 Lb
18:48 Wind:055º@006 Knots Heading: 112º Ground Speed: 373 Knots Altitude 11843 ft
18:59 Flaps:1 at 189 Knots
19:03 Wind:004º@005 Knots Heading: 032º Ground Speed: 164 Knots Altitude 2965 ft
19:03 Flaps:2 at 161 Knots
19:03 Gear Down: 178 Knots
19:04 Flaps:3 at 164 Knots
19:05 Flaps:4 at 132 Knots
19:06 Flaps:5 at 148 Knots
19:06 TouchDown:Rate -427 ft/min Speed: 137 Knots
19:07 Flaps:3 at 18 Knots
19:07 VATSIM:LFKJ 271900Z 35003KT 300V040 CAVOK 12/09 Q1008 NOSIG
19:07 Land
19:07 Wind:009º@003 Knots
19:07 Heading: 027º
19:07 Flight Duration: 01:04
19:07 Landing Weight: 195151 Lbs
19:07 POS N41º 55´ 32´´ E008º 48´ 12´´
19:12 Parking brakes on
19:12
Block to Block Duration: 01:16
19:12 Final Fuel: 8959 Lbls
19:12 Spent Fuel: 15041 Lbls
19:12 Flight Length: 385 NM
19:12 TOD Land Length: 149 NM

Exportar CSV

Powered by Drupal - Modified by Danger4k